KLUD Airport (Decatur Muni) Information

FAA: LUD - ICAO: KLUD

KLUD Airport Location

State Texas
County Wise
City Decatur
KLUD Airport is 2 miles north of Decatur, TX.
Latitude 33-15-15.3000N
Longitude 097-34-49.8000W
Elevation 1,046ft

KLUD Airport METARs

METAR KLUD 020215Z AUTO 29003KT 7SM BKN025 M02/M03 A3033 RMK AO2 T10201035
Altimeter 30.33"
Temperature -2.0°C (28.4°F)
Wind 290° at 3KT
Clouds broken at 2,500ft
Visibility 7.0mi
Time observed: 2023-02-02T02:15:00Z

KLUD Airport Details

Status Operational
Activation January 1947
Ownership Public
Usage Public
Chart DALLAS-FT WORTH
ATC on-site No
Beacon schedule sunset-sunrise
Beacon color clear green

KLUD Airport Contacts

Owner CITY OF DECATUR
Owner address PO BOX 1299, DECATUR, TX 76234
Owner phone (940) 393-0200
Manager N/A
Manager address N/A, N/A
Manager phone N/A

KLUD Airport (Decatur Muni) Radio Frequencies

KLUD (Airport) Radio Frequencies

UNICOM 122.8
Common traffic advisory frequency (CTAF) 122.8